Time;durP1;ratioP1;P1;durP2;ratioP2;P2;SDS_P1;SDS_P2;PMS_P1;PMS_P2;Temp;Humidity;BMP_temperature;BMP_pressure;BME280_temperature;BME280_humidity;BME280_pressure;Samples;Min_cycle;Max_cycle;Signal;HPM_P1;HPM_P2
2023/01/22 00:03:20;;;;;;;;;;;;;;;1.37;96.92;101452.52;213895;1270;61483;-74
2023/01/22 00:08:13;;;;;;;;;;;;;;;1.38;97.36;101454.63;213964;1273;61345;-74
2023/01/22 00:13:05;;;;;;;;;;;;;;;1.37;97.26;101456.60;213984;1270;66933;-74
2023/01/22 00:17:58;;;;;;;;;;;;;;;1.38;96.90;101459.58;213946;1270;61293;-74
2023/01/22 00:22:51;;;;;;;;;;;;;;;1.37;97.11;101459.70;213923;1273;61368;-74
2023/01/22 00:27:43;;;;;;;;;;;;;;;1.37;97.13;101460.88;213939;1273;61285;-74
2023/01/22 00:32:36;;;;;;;;;;;;;;;1.37;97.02;101464.61;213939;1270;69015;-74
2023/01/22 00:37:29;;;;;;;;;;;;;;;1.37;96.86;101470.44;213888;1271;61330;-74
2023/01/22 00:42:22;;;;;;;;;;;;;;;1.37;96.87;101481.20;213825;1270;61399;-74
2023/01/22 00:47:14;;;;;;;;;;;;;;;1.37;96.84;101484.42;213937;1270;61285;-75
2023/01/22 00:52:07;;;;;;;;;;;;;;;1.35;96.93;101486.39;213950;1270;61964;-75
2023/01/22 00:57:00;;;;;;;;;;;;;;;1.35;96.85;101485.55;213970;1270;61243;-73
2023/01/22 01:01:54;;;;;;;;;;;;;;;1.35;96.74;101490.47;213937;1270;72306;-74
2023/01/22 01:06:47;;;;;;;;;;;;;;;1.36;96.87;101496.15;213925;1271;61361;-75
2023/01/22 01:11:40;;;;;;;;;;;;;;;1.34;96.62;101497.25;213877;1270;61326;-75
2023/01/22 01:16:33;;;;;;;;;;;;;;;1.33;96.82;101498.20;213432;1270;61707;-75
2023/01/22 01:21:27;;;;;;;;;;;;;;;1.33;96.96;101500.77;213415;1271;74806;-74
2023/01/22 01:26:20;;;;;;;;;;;;;;;1.32;96.58;101502.94;213622;1270;73788;-75
2023/01/22 01:31:14;;;;;;;;;;;;;;;1.32;96.81;101509.06;213786;1273;61297;-75
2023/01/22 01:36:10;;;;;;;;;;;;;;;1.32;96.44;101518.45;214000;1270;67299;-74
2023/01/22 01:41:03;;;;;;;;;;;;;;;1.30;96.76;101517.84;213992;1272;61485;-75
2023/01/22 01:45:59;;;;;;;;;;;;;;;1.29;96.76;101520.30;213954;1273;75346;-75
2023/01/22 01:51:04;;;;;;;;;;;;;;;1.28;96.67;101523.50;213898;1270;71633;-74
2023/01/22 01:55:58;;;;;;;;;;;;;;;1.27;96.51;101530.56;213928;1270;61297;-74
2023/01/22 02:00:51;;;;;;;;;;;;;;;1.27;96.81;101531.75;213766;1271;66159;-74
2023/01/22 02:05:44;;;;;;;;;;;;;;;1.25;96.60;101533.02;213892;1270;62917;-74
2023/01/22 02:10:37;;;;;;;;;;;;;;;1.24;96.80;101529.91;213944;1270;61444;-74
2023/01/22 02:15:30;;;;;;;;;;;;;;;1.23;96.87;101533.60;213935;1270;71172;-74
2023/01/22 02:20:23;;;;;;;;;;;;;;;1.23;96.88;101531.88;213962;1270;61383;-74
2023/01/22 02:25:16;;;;;;;;;;;;;;;1.23;97.12;101539.21;213874;1270;61292;-74
2023/01/22 02:30:10;;;;;;;;;;;;;;;1.23;96.56;101537.64;213744;1270;61400;-75
2023/01/22 02:35:03;;;;;;;;;;;;;;;1.23;96.60;101537.85;213868;1270;74883;-74
2023/01/22 02:39:55;;;;;;;;;;;;;;;1.22;96.73;101541.52;213865;1270;61746;-74
2023/01/22 02:44:51;;;;;;;;;;;;;;;1.21;96.46;101537.85;213842;1271;61287;-74
2023/01/22 02:49:44;;;;;;;;;;;;;;;1.20;96.60;101544.26;213972;1270;65949;-75
2023/01/22 02:54:37;;;;;;;;;;;;;;;1.20;96.87;101541.23;213927;1270;61390;-74
2023/01/22 02:59:30;;;;;;;;;;;;;;;1.20;96.58;101545.80;213950;1271;61199;-74
2023/01/22 03:04:22;;;;;;;;;;;;;;;1.19;96.68;101553.78;213839;1275;61403;-75
2023/01/22 03:09:16;;;;;;;;;;;;;;;1.18;96.58;101561.72;213956;1270;61286;-74
2023/01/22 03:24:36;;;;;;;;;;;;;;;1.17;96.55;101584.55;213881;1270;75143;-75
2023/01/22 03:29:29;;;;;;;;;;;;;;;1.17;96.65;101586.77;213910;1270;71496;-73
2023/01/22 03:34:23;;;;;;;;;;;;;;;1.16;96.50;101586.02;213878;1274;61291;-73
2023/01/22 03:39:17;;;;;;;;;;;;;;;1.16;96.72;101584.98;213718;1270;66307;-74
2023/01/22 03:44:10;;;;;;;;;;;;;;;1.16;96.66;101585.19;213900;1270;61272;-73
2023/01/22 03:49:03;;;;;;;;;;;;;;;1.16;96.44;101587.36;213932;1274;75657;-73
2023/01/22 03:53:58;;;;;;;;;;;;;;;1.15;96.42;101597.27;213816;1273;71099;-74
2023/01/22 03:58:51;;;;;;;;;;;;;;;1.15;96.63;101602.88;213883;1272;61411;-74
2023/01/22 04:03:44;;;;;;;;;;;;;;;1.14;96.47;101606.62;213818;1270;67125;-73
2023/01/22 04:08:39;;;;;;;;;;;;;;;1.14;96.61;101614.47;213478;1273;61307;-74
2023/01/22 04:13:32;;;;;;;;;;;;;;;1.14;96.34;101617.54;213778;1271;74927;-73
2023/01/22 04:18:25;;;;;;;;;;;;;;;1.14;96.32;101617.16;213780;1271;72545;-73
2023/01/22 04:23:31;;;;;;;;;;;;;;;1.13;96.49;101616.96;213914;1270;61352;-74
2023/01/22 04:28:25;;;;;;;;;;;;;;;1.13;96.09;101622.21;213876;1270;65880;-74
2023/01/22 04:33:20;;;;;;;;;;;;;;;1.12;96.08;101625.21;213756;1270;61418;-73
2023/01/22 04:38:25;;;;;;;;;;;;;;;1.12;96.15;101636.84;213782;1270;74506;-74
2023/01/22 04:43:18;;;;;;;;;;;;;;;1.10;96.35;101641.67;213725;1276;61300;-74
2023/01/22 04:48:14;;;;;;;;;;;;;;;1.11;95.98;101647.02;213760;1270;61195;-74
2023/01/22 04:53:08;;;;;;;;;;;;;;;1.10;96.21;101647.09;213744;1270;66769;-73
2023/01/22 04:58:01;;;;;;;;;;;;;;;1.08;95.93;101648.55;213883;1271;61329;-74
2023/01/22 05:03:01;;;;;;;;;;;;;;;1.08;96.03;101654.34;213717;1270;73751;-73
2023/01/22 05:07:55;;;;;;;;;;;;;;;1.08;96.31;101658.41;213851;1273;72348;-74
2023/01/22 05:12:48;;;;;;;;;;;;;;;1.07;96.50;101657.16;213758;1274;61345;-74
2023/01/22 05:17:42;;;;;;;;;;;;;;;1.07;96.09;101657.14;213932;1272;65242;-74
2023/01/22 05:22:35;;;;;;;;;;;;;;;1.05;96.36;101655.65;213937;1270;61464;-73
2023/01/22 05:27:28;;;;;;;;;;;;;;;1.05;96.18;101660.77;213923;1270;61365;-74
2023/01/22 05:32:32;;;;;;;;;;;;;;;1.04;96.45;101666.69;213804;1271;73685;-73
2023/01/22 05:37:26;;;;;;;;;;;;;;;1.04;96.16;101669.18;213775;1273;61371;-73
2023/01/22 05:42:19;;;;;;;;;;;;;;;1.03;96.36;101676.69;213804;1275;66176;-73
2023/01/22 05:47:14;;;;;;;;;;;;;;;1.03;96.46;101678.18;213879;1274;61274;-74
2023/01/22 05:52:10;;;;;;;;;;;;;;;1.03;96.23;101686.38;213855;1274;73832;-74
2023/01/22 05:57:04;;;;;;;;;;;;;;;1.03;96.50;101692.67;213654;1273;70646;-73
2023/01/22 06:01:57;;;;;;;;;;;;;;;1.02;96.45;101699.27;213925;1270;61390;-74
2023/01/22 06:06:51;;;;;;;;;;;;;;;1.02;96.41;101707.30;213838;1271;66416;-73
2023/01/22 06:11:44;;;;;;;;;;;;;;;1.02;96.29;101706.48;213923;1273;61423;-74
2023/01/22 06:16:38;;;;;;;;;;;;;;;1.01;96.48;101708.63;213887;1271;75811;-73
2023/01/22 06:21:35;;;;;;;;;;;;;;;1.01;96.21;101717.83;213812;1274;71473;-74
2023/01/22 06:26:28;;;;;;;;;;;;;;;1.01;96.25;101719.23;213816;1274;61384;-74
2023/01/22 06:31:21;;;;;;;;;;;;;;;1.02;96.17;101721.83;213684;1273;61416;-74
2023/01/22 06:36:14;;;;;;;;;;;;;;;1.03;96.30;101721.91;213732;1270;61412;-74
2023/01/22 06:41:07;;;;;;;;;;;;;;;1.04;96.20;101727.23;213888;1274;74541;-73
2023/01/22 06:46:02;;;;;;;;;;;;;;;1.05;96.33;101733.30;213816;1270;71589;-74
2023/01/22 06:51:08;;;;;;;;;;;;;;;1.05;96.07;101742.02;213701;1270;61313;-74
2023/01/22 06:56:01;;;;;;;;;;;;;;;1.06;96.11;101747.09;213799;1270;66087;-73
2023/01/22 07:00:54;;;;;;;;;;;;;;;1.08;96.16;101753.02;213815;1274;61307;-73
2023/01/22 07:05:47;;;;;;;;;;;;;;;1.11;95.85;101758.86;213894;1271;61886;-74
2023/01/22 07:10:39;;;;;;;;;;;;;;;1.13;95.96;101766.34;213823;1270;61293;-74
2023/01/22 07:15:32;;;;;;;;;;;;;;;1.15;95.75;101776.05;213988;1270;61368;-74
2023/01/22 07:20:25;;;;;;;;;;;;;;;1.17;95.97;101785.58;213949;1270;61310;-74
2023/01/22 07:25:18;;;;;;;;;;;;;;;1.19;95.71;101784.16;213841;1272;61499;-74
2023/01/22 07:30:11;;;;;;;;;;;;;;;1.20;95.70;101790.22;213825;1270;61347;-74
2023/01/22 07:35:04;;;;;;;;;;;;;;;1.22;95.35;101790.69;213836;1271;61900;-74
2023/01/22 07:39:57;;;;;;;;;;;;;;;1.23;95.56;101799.00;213891;1273;61275;-74
2023/01/22 07:44:50;;;;;;;;;;;;;;;1.27;95.63;101804.78;213801;1274;61312;-73
2023/01/22 07:49:42;;;;;;;;;;;;;;;1.31;95.61;101811.18;213665;1270;61285;-74
2023/01/22 07:54:36;;;;;;;;;;;;;;;1.35;94.94;101818.59;213830;1271;61297;-74
2023/01/22 07:59:29;;;;;;;;;;;;;;;1.37;95.22;101818.23;213929;1270;61359;-73
2023/01/22 08:04:21;;;;;;;;;;;;;;;1.39;94.86;101822.83;213843;1275;61812;-73
2023/01/22 08:09:15;;;;;;;;;;;;;;;1.42;94.89;101831.58;213855;1271;61311;-73
2023/01/22 08:14:08;;;;;;;;;;;;;;;1.44;94.86;101833.32;213911;1271;61291;-74
2023/01/22 08:19:01;;;;;;;;;;;;;;;1.45;94.48;101831.85;213890;1274;61419;-74
2023/01/22 08:23:54;;;;;;;;;;;;;;;1.48;94.38;101825.89;213830;1272;61294;-74
2023/01/22 08:28:46;;;;;;;;;;;;;;;1.52;94.55;101824.28;213951;1271;61374;-73
2023/01/22 08:33:39;;;;;;;;;;;;;;;1.56;94.20;101833.08;213841;1270;60803;-74
2023/01/22 08:38:32;;;;;;;;;;;;;;;1.57;94.05;101839.31;213852;1270;61300;-73
2023/01/22 08:43:25;;;;;;;;;;;;;;;1.58;93.86;101846.38;213805;1270;62664;-73
2023/01/22 08:48:18;;;;;;;;;;;;;;;1.60;93.86;101850.95;213803;1273;61316;-74
2023/01/22 08:53:11;;;;;;;;;;;;;;;1.61;93.71;101854.31;213875;1273;61355;-74
2023/01/22 08:58:04;;;;;;;;;;;;;;;1.63;93.75;101862.00;213817;1273;61377;-74
2023/01/22 09:02:57;;;;;;;;;;;;;;;1.65;93.33;101868.59;213911;1273;61310;-73
2023/01/22 09:07:50;;;;;;;;;;;;;;;1.64;93.49;101869.71;213953;1271;61293;-74
2023/01/22 09:12:43;;;;;;;;;;;;;;;1.63;93.35;101878.55;213844;1270;61301;-73
2023/01/22 09:17:35;;;;;;;;;;;;;;;1.63;93.41;101881.31;213889;1273;61306;-73
2023/01/22 09:22:28;;;;;;;;;;;;;;;1.66;93.25;101884.56;213808;1276;61335;-74
2023/01/22 09:27:21;;;;;;;;;;;;;;;1.67;92.95;101881.62;213879;1275;61394;-74
2023/01/22 09:32:14;;;;;;;;;;;;;;;1.68;92.94;101884.38;213899;1270;61573;-74
2023/01/22 09:37:07;;;;;;;;;;;;;;;1.69;92.52;101881.40;213843;1273;61779;-73
2023/01/22 09:42:01;;;;;;;;;;;;;;;1.71;92.09;101880.17;213921;1274;61261;-75
2023/01/22 09:46:59;;;;;;;;;;;;;;;1.72;92.19;101883.33;213890;1275;61323;-73
2023/01/22 09:51:57;;;;;;;;;;;;;;;1.75;92.13;101882.66;213855;1271;61392;-74
2023/01/22 09:56:51;;;;;;;;;;;;;;;1.78;91.89;101885.79;213713;1276;73767;-73
2023/01/22 10:01:57;;;;;;;;;;;;;;;1.79;92.01;101893.58;213941;1272;72405;-73
2023/01/22 10:06:51;;;;;;;;;;;;;;;1.79;91.87;101897.27;213924;1275;64622;-73
2023/01/22 10:11:46;;;;;;;;;;;;;;;1.83;92.01;101896.89;213883;1275;68293;-73
2023/01/22 10:16:39;;;;;;;;;;;;;;;1.87;91.55;101892.94;213969;1270;61340;-73
2023/01/22 10:21:48;;;;;;;;;;;;;;;1.91;91.53;101895.58;213872;1276;61307;-74
2023/01/22 10:26:48;;;;;;;;;;;;;;;1.93;91.17;101887.52;213877;1270;72560;-73
2023/01/22 10:31:48;;;;;;;;;;;;;;;1.95;91.26;101885.55;213892;1273;61368;-74
2023/01/22 10:36:46;;;;;;;;;;;;;;;1.96;91.01;101879.85;213839;1270;66748;-74
2023/01/22 10:41:40;;;;;;;;;;;;;;;1.99;90.83;101880.42;214052;1275;61373;-74
2023/01/22 10:46:32;;;;;;;;;;;;;;;2.00;90.90;101877.41;213988;1275;74647;-73
2023/01/22 10:51:31;;;;;;;;;;;;;;;2.02;90.81;101876.70;213936;1271;61349;-74
2023/01/22 10:56:30;;;;;;;;;;;;;;;2.00;90.67;101877.94;214026;1274;61377;-74
2023/01/22 11:01:31;;;;;;;;;;;;;;;2.00;90.39;101872.94;214074;1270;68035;-73
2023/01/22 11:06:27;;;;;;;;;;;;;;;2.04;90.61;101871.52;213893;1270;61394;-74
2023/01/22 11:11:24;;;;;;;;;;;;;;;2.06;90.53;101871.02;213857;1270;72481;-73
2023/01/22 11:16:21;;;;;;;;;;;;;;;2.04;90.33;101876.52;213764;1271;106999;-74
2023/01/22 11:21:16;;;;;;;;;;;;;;;2.03;90.34;101878.13;213896;1270;61287;-74
2023/01/22 11:26:27;;;;;;;;;;;;;;;2.05;90.42;101871.23;213910;1270;67084;-74
2023/01/22 11:31:28;;;;;;;;;;;;;;;2.03;90.24;101868.01;213867;1270;61307;-74
2023/01/22 11:36:41;;;;;;;;;;;;;;;2.06;90.26;101871.02;213943;1275;74581;-74
2023/01/22 11:41:50;;;;;;;;;;;;;;;2.06;90.42;101870.11;213959;1270;71936;-74
2023/01/22 11:46:51;;;;;;;;;;;;;;;2.01;90.07;101860.89;213899;1270;61298;-74
2023/01/22 11:52:20;;;;;;;;;;;;;;;2.02;90.41;101859.73;213821;1270;67228;-74
2023/01/22 11:57:16;;;;;;;;;;;;;;;2.00;90.19;101855.19;212375;1280;61754;-74
2023/01/22 12:02:48;;;;;;;;;;;;;;;2.01;90.10;101856.46;212457;1281;74395;-74
2023/01/22 12:07:41;;;;;;;;;;;;;;;1.99;90.16;101862.79;210890;1286;72603;-74
2023/01/22 12:12:45;;;;;;;;;;;;;;;1.97;90.34;101858.40;210978;1284;61292;-74
2023/01/22 12:17:45;;;;;;;;;;;;;;;1.99;90.35;101864.31;210877;1285;67746;-74
2023/01/22 12:22:38;;;;;;;;;;;;;;;1.94;89.91;101867.05;210766;1285;61365;-74
2023/01/22 12:27:39;;;;;;;;;;;;;;;1.88;90.03;101867.52;210758;1285;61371;-74
2023/01/22 12:32:33;;;;;;;;;;;;;;;1.85;89.92;101871.27;212064;1277;72842;-75
2023/01/22 12:37:29;;;;;;;;;;;;;;;1.82;89.87;101869.64;212875;1270;61384;-75
2023/01/22 12:42:25;;;;;;;;;;;;;;;1.77;90.14;101878.56;213812;1270;67011;-75
2023/01/22 12:47:18;;;;;;;;;;;;;;;1.74;90.17;101877.14;214105;1270;61316;-75
2023/01/22 12:52:26;;;;;;;;;;;;;;;1.70;90.20;101884.23;213815;1270;61399;-74
2023/01/22 12:57:19;;;;;;;;;;;;;;;1.69;90.15;101884.99;213862;1269;72672;-75
2023/01/22 13:02:21;;;;;;;;;;;;;;;1.67;90.05;101882.29;213817;1273;61620;-74
2023/01/22 13:07:29;;;;;;;;;;;;;;;1.65;90.09;101884.34;213753;1270;67026;-73
2023/01/22 13:12:26;;;;;;;;;;;;;;;1.65;90.39;101888.11;213693;1270;61370;-73
2023/01/22 13:17:21;;;;;;;;;;;;;;;1.64;90.05;101887.70;213783;1270;74156;-73
2023/01/22 13:22:15;;;;;;;;;;;;;;;1.64;89.69;101882.89;213827;1270;71591;-74
2023/01/22 13:27:20;;;;;;;;;;;;;;;1.66;89.83;101886.44;213535;1273;61294;-73
2023/01/22 13:32:21;;;;;;;;;;;;;;;1.67;89.56;101880.53;213710;1270;68097;-73
2023/01/22 13:37:24;;;;;;;;;;;;;;;1.69;89.69;101881.73;213914;1270;61351;-73
2023/01/22 13:42:17;;;;;;;;;;;;;;;1.71;89.44;101887.99;213743;1270;73985;-73
2023/01/22 13:47:24;;;;;;;;;;;;;;;1.70;89.35;101895.63;213758;1271;61383;-73
2023/01/22 13:52:18;;;;;;;;;;;;;;;1.68;89.51;101898.41;213805;1271;61310;-73
2023/01/22 13:57:16;;;;;;;;;;;;;;;1.67;89.46;101902.08;213806;1270;66009;-73
2023/01/22 14:02:28;;;;;;;;;;;;;;;1.64;89.33;101913.70;213782;1271;61339;-73
2023/01/22 14:07:25;;;;;;;;;;;;;;;1.63;89.53;101918.19;213887;1270;74897;-74
2023/01/22 14:12:19;;;;;;;;;;;;;;;1.59;89.33;101925.63;213746;1273;71824;-74
2023/01/22 14:17:22;;;;;;;;;;;;;;;1.55;89.57;101922.41;213812;1270;61431;-74
2023/01/22 14:22:15;;;;;;;;;;;;;;;1.52;89.64;101933.17;213876;1270;66987;-73
2023/01/22 14:27:08;;;;;;;;;;;;;;;1.50;89.92;101938.19;213719;1270;61319;-73
2023/01/22 14:32:01;;;;;;;;;;;;;;;1.49;89.62;101946.27;213409;1270;61361;-75
2023/01/22 14:36:54;;;;;;;;;;;;;;;1.49;89.90;101958.23;213587;1270;61754;-74
2023/01/22 14:41:49;;;;;;;;;;;;;;;1.49;89.98;101963.71;213862;1273;61243;-73
2023/01/22 14:46:43;;;;;;;;;;;;;;;1.48;89.96;101961.58;213839;1270;66479;-73
2023/01/22 14:51:35;;;;;;;;;;;;;;;1.48;89.75;101961.70;213383;1270;61902;-72
2023/01/22 14:56:28;;;;;;;;;;;;;;;1.46;89.72;101961.10;213320;1270;61371;-73
2023/01/22 15:01:22;;;;;;;;;;;;;;;1.44;89.78;101958.86;213487;1273;61256;-73
2023/01/22 15:06:15;;;;;;;;;;;;;;;1.41;89.88;101961.90;213525;1270;61314;-72
2023/01/22 15:11:08;;;;;;;;;;;;;;;1.38;89.64;101966.32;213600;1270;67023;-73
2023/01/22 15:16:06;;;;;;;;;;;;;;;1.35;89.80;101976.70;213459;1270;61282;-72
2023/01/22 15:20:58;;;;;;;;;;;;;;;1.34;90.23;101979.00;213420;1270;74542;-73
2023/01/22 15:25:58;;;;;;;;;;;;;;;1.33;90.13;101983.86;213527;1270;61571;-73
2023/01/22 15:30:52;;;;;;;;;;;;;;;1.33;90.11;101988.46;213486;1270;61255;-72
2023/01/22 15:35:45;;;;;;;;;;;;;;;1.32;90.23;101989.47;213498;1270;67951;-73
2023/01/22 15:40:38;;;;;;;;;;;;;;;1.31;90.33;101995.16;213609;1270;61294;-75
2023/01/22 15:45:31;;;;;;;;;;;;;;;1.30;90.13;102001.41;213537;1270;61753;-74
2023/01/22 15:50:25;;;;;;;;;;;;;;;1.31;90.24;102003.19;213290;1270;73627;-74
2023/01/22 15:55:18;;;;;;;;;;;;;;;1.31;90.04;102001.46;213436;1271;61959;-74
2023/01/22 16:05:07;;;;;;;26.80;17.10;;;;;;;1.31;90.21;102012.73;209368;1292;600156;-74
2023/01/22 16:10:00;;;;;;;31.20;16.60;;;;;;;1.28;90.40;102016.13;214747;1260;60158;-74
2023/01/22 16:14:53;;;;;;;38.20;22.80;;;;;;;1.27;90.33;102019.46;215392;1257;67005;-74
2023/01/22 16:19:49;;;;;;;28.40;17.70;;;;;;;1.26;90.51;102029.12;215633;1254;144623;-74
2023/01/22 16:24:42;;;;;;;32.40;18.60;;;;;;;1.24;90.50;102033.89;215682;1254;72174;-74
2023/01/22 16:29:35;;;;;;;30.70;20.10;;;;;;;1.22;90.71;102040.77;215787;1253;73348;-74
2023/01/22 16:34:28;;;;;;;31.70;21.60;;;;;;;1.21;90.84;102040.90;215787;1252;59251;-74
2023/01/22 16:39:24;;;;;;;33.40;20.00;;;;;;;1.20;90.75;102045.54;215773;1253;59250;-73
2023/01/22 16:44:23;;;;;;;30.30;17.70;;;;;;;1.19;91.04;102049.77;215779;1254;60650;-73
2023/01/22 16:49:28;;;;;;;28.20;18.40;;;;;;;1.19;90.97;102051.25;215762;1253;73122;-74
2023/01/22 16:54:26;;;;;;;32.00;18.20;;;;;;;1.17;90.98;102057.13;215777;1252;71772;-74
2023/01/22 16:59:20;;;;;;;32.10;18.70;;;;;;;1.16;91.07;102060.45;215931;1253;60012;-74
2023/01/22 17:04:13;;;;;;;35.00;18.70;;;;;;;1.14;91.27;102060.02;215902;1253;67040;-74
2023/01/22 17:09:07;;;;;;;27.30;17.10;;;;;;;1.10;91.08;102064.33;215903;1253;59617;-74
2023/01/22 17:14:01;;;;;;;34.40;21.30;;;;;;;1.07;91.29;102065.98;216040;1253;71681;-74
2023/01/22 17:18:57;;;;;;;28.00;17.40;;;;;;;1.06;91.48;102062.84;215918;1253;72387;-74
2023/01/22 17:23:50;;;;;;;31.80;19.50;;;;;;;1.04;91.48;102066.60;216005;1254;60736;-73
2023/01/22 17:28:44;;;;;;;32.80;19.70;;;;;;;1.02;91.81;102071.90;215990;1252;59645;-73
2023/01/22 17:33:37;;;;;;;30.90;17.80;;;;;;;1.01;91.77;102074.38;215969;1253;59641;-74
2023/01/22 17:38:32;;;;;;;26.50;17.00;;;;;;;1.01;92.04;102083.56;215988;1253;59596;-73
2023/01/22 17:43:30;;;;;;;34.30;18.60;;;;;;;1.00;91.96;102096.31;216080;1254;71377;-73
2023/01/22 17:48:23;;;;;;;28.70;17.30;;;;;;;1.00;91.93;102104.65;216059;1254;59709;-73
2023/01/22 17:53:15;;;;;;;33.90;19.60;;;;;;;1.00;92.30;102110.27;215935;1252;59675;-74
2023/01/22 17:58:08;;;;;;;35.40;19.10;;;;;;;1.01;92.26;102108.63;215995;1253;59683;-74
2023/01/22 18:03:01;;;;;;;34.50;19.90;;;;;;;1.00;92.38;102107.73;215942;1254;59644;-74
2023/01/22 18:07:54;;;;;;;32.80;17.80;;;;;;;1.01;92.32;102112.25;215893;1253;59737;-73
2023/01/22 18:12:48;;;;;;;29.60;16.90;;;;;;;1.01;92.63;102111.73;215858;1253;59644;-74
2023/01/22 18:17:40;;;;;;;31.10;18.20;;;;;;;1.00;92.76;102109.96;215858;1253;59683;-74
2023/01/22 18:22:33;;;;;;;38.60;20.60;;;;;;;0.99;92.62;102104.27;215817;1253;59885;-74
2023/01/22 18:27:27;;;;;;;31.30;18.80;;;;;;;0.98;92.44;102109.31;216003;1253;62437;-73
2023/01/22 18:32:21;;;;;;;32.70;18.40;;;;;;;0.98;92.51;102110.63;215915;1253;71374;-73
2023/01/22 18:37:14;;;;;;;31.10;18.70;;;;;;;0.98;92.90;102108.08;215938;1256;60086;-72
2023/01/22 18:42:07;;;;;;;37.00;20.60;;;;;;;0.98;92.79;102112.67;215713;1253;66742;-73
2023/01/22 18:47:00;;;;;;;34.50;21.00;;;;;;;0.97;92.84;102116.55;215757;1253;60091;-73
2023/01/22 18:51:57;;;;;;;40.40;23.50;;;;;;;0.96;92.72;102122.46;215729;1254;72680;-73
2023/01/22 18:56:50;;;;;;;40.60;20.70;;;;;;;0.97;92.87;102120.83;215780;1257;71992;-73
2023/01/22 19:01:49;;;;;;;36.10;20.20;;;;;;;0.96;92.90;102119.79;215853;1253;59727;-73
2023/01/22 19:06:46;;;;;;;36.50;23.40;;;;;;;0.95;92.78;102122.43;215856;1253;66905;-73
2023/01/22 19:11:44;;;;;;;36.70;20.30;;;;;;;0.96;92.83;102122.98;215772;1257;60056;-73
2023/01/22 19:16:37;;;;;;;28.70;18.00;;;;;;;0.96;92.92;102123.65;215759;1253;75186;-73
2023/01/22 19:21:31;;;;;;;32.90;18.90;;;;;;;0.95;92.82;102127.17;215513;1253;71335;-73
2023/01/22 19:26:30;;;;;;;26.50;17.20;;;;;;;0.95;92.97;102130.63;215715;1253;61258;-73
2023/01/22 19:31:28;;;;;;;37.60;21.20;;;;;;;0.95;93.25;102129.09;215646;1253;65801;-73
2023/01/22 19:36:23;;;;;;;32.00;18.20;;;;;;;0.97;93.22;102130.74;215772;1256;59741;-73
2023/01/22 19:41:17;;;;;;;31.20;17.90;;;;;;;0.98;92.92;102134.52;215643;1253;71994;-73
2023/01/22 19:46:12;;;;;;;31.20;18.80;;;;;;;0.97;93.06;102141.11;215580;1253;73513;-73
2023/01/22 19:51:11;;;;;;;31.10;18.00;;;;;;;0.97;93.22;102146.45;215692;1253;61129;-73
2023/01/22 19:56:14;;;;;;;28.30;17.60;;;;;;;0.97;93.07;102145.92;215461;1253;68750;-73
2023/01/22 20:01:11;;;;;;;37.40;21.00;;;;;;;0.97;93.29;102147.16;215662;1253;59650;-74
2023/01/22 20:06:08;;;;;;;33.10;20.10;;;;;;;0.97;93.22;102148.82;215640;1253;74034;-74
2023/01/22 20:11:02;;;;;;;34.40;18.50;;;;;;;0.98;93.15;102144.50;215654;1253;73282;-74
2023/01/22 20:15:56;;;;;;;30.30;19.50;;;;;;;0.99;93.41;102148.96;215746;1256;59669;-72
2023/01/22 20:20:52;;;;;;;32.10;18.30;;;;;;;0.98;93.43;102157.94;216011;1256;67994;-73
2023/01/22 20:25:45;;;;;;;32.70;18.70;;;;;;;0.97;93.27;102158.94;215884;1253;59674;-72
2023/01/22 20:30:39;;;;;;;36.60;20.60;;;;;;;0.97;93.16;102167.13;215747;1254;60200;-73
2023/01/22 20:35:32;;;;;;;33.60;20.90;;;;;;;0.98;93.34;102167.17;215912;1253;72055;-73
2023/01/22 20:40:25;;;;;;;33.90;20.00;;;;;;;0.99;93.03;102172.89;215656;1254;59614;-74
2023/01/22 20:45:18;;;;;;;36.70;19.20;;;;;;;0.99;93.32;102169.63;215553;1253;68447;-73
2023/01/22 20:50:12;;;;;;;36.80;19.90;;;;;;;0.99;92.99;102170.14;215565;1253;59677;-73
2023/01/22 20:55:05;;;;;;;29.40;17.20;;;;;;;1.00;93.12;102173.70;215913;1253;59737;-73
2023/01/22 20:59:58;;;;;;;30.80;18.70;;;;;;;1.00;93.39;102184.79;215832;1255;73658;-73
2023/01/22 21:04:52;;;;;;;30.10;17.30;;;;;;;1.00;93.00;102187.79;215935;1253;59731;-73
2023/01/22 21:09:46;;;;;;;43.60;21.80;;;;;;;0.99;93.27;102191.35;215881;1253;66683;-72
2023/01/22 21:14:39;;;;;;;27.80;16.50;;;;;;;0.98;93.40;102194.69;215766;1253;59979;-73
2023/01/22 21:19:32;;;;;;;27.40;16.50;;;;;;;0.98;93.54;102200.13;215984;1253;73723;-73
2023/01/22 21:24:25;;;;;;;27.80;17.60;;;;;;;0.99;93.16;102199.66;215900;1253;60152;-73
2023/01/22 21:29:22;;;;;;;26.50;15.70;;;;;;;0.98;93.22;102201.67;216085;1252;60298;-73
2023/01/22 21:34:20;;;;;;;22.90;14.30;;;;;;;0.97;93.14;102194.73;215832;1253;68139;-73
2023/01/22 21:39:16;;;;;;;30.00;16.60;;;;;;;0.97;93.12;102196.27;215931;1253;60157;-74
2023/01/22 21:49:24;;;;;;;27.60;16.50;;;;;;;0.97;93.15;102200.38;215935;1253;72235;-73
2023/01/22 21:54:25;;;;;;;24.40;15.80;;;;;;;0.96;93.49;102203.89;216085;1252;59790;-73
2023/01/22 21:59:18;;;;;;;31.30;17.60;;;;;;;0.95;93.29;102205.04;216196;1253;67174;-73
2023/01/22 22:04:12;;;;;;;26.40;16.10;;;;;;;0.96;93.14;102204.04;215958;1253;59619;-73
2023/01/22 22:09:18;;;;;;;23.50;15.80;;;;;;;0.96;93.30;102203.40;216155;1252;72567;-73
2023/01/22 22:14:12;;;;;;;25.00;14.50;;;;;;;0.95;93.41;102203.34;216246;1253;72413;-73
2023/01/22 22:19:06;;;;;;;27.50;15.90;;;;;;;0.95;93.24;102212.35;216034;1252;61164;-74
2023/01/22 22:23:59;;;;;;;25.40;16.80;;;;;;;0.95;93.11;102214.77;215940;1252;66747;-74
2023/01/22 22:28:52;;;;;;;29.10;16.40;;;;;;;0.94;93.37;102216.42;216217;1255;59783;-73
2023/01/22 22:33:48;;;;;;;25.60;16.70;;;;;;;0.94;93.22;102208.19;216075;1253;72906;-73
2023/01/22 22:38:41;;;;;;;26.50;15.40;;;;;;;0.94;93.63;102211.61;216199;1252;71425;-74
2023/01/22 22:43:37;;;;;;;25.70;15.10;;;;;;;0.94;93.63;102213.46;215821;1255;61328;-74
2023/01/22 22:48:31;;;;;;;27.30;17.00;;;;;;;0.95;93.21;102221.24;216030;1252;66485;-74
2023/01/22 22:53:25;;;;;;;28.90;16.10;;;;;;;0.97;93.41;102233.34;215994;1252;59913;-74
2023/01/22 22:58:19;;;;;;;28.20;15.30;;;;;;;0.99;93.67;102239.63;215583;1255;72752;-74
2023/01/22 23:03:12;;;;;;;26.90;15.50;;;;;;;1.00;93.85;102244.83;216015;1252;72715;-73
2023/01/22 23:08:06;;;;;;;27.40;14.30;;;;;;;1.00;93.60;102245.36;215977;1251;59604;-73
2023/01/22 23:13:02;;;;;;;25.00;14.60;;;;;;;0.99;93.58;102248.40;216091;1255;67176;-74
2023/01/22 23:17:57;;;;;;;25.20;15.20;;;;;;;1.00;93.62;102253.73;216750;1252;59650;-74
2023/01/22 23:22:55;;;;;;;26.90;16.00;;;;;;;1.01;93.65;102257.10;216171;1253;73183;-73
2023/01/22 23:27:48;;;;;;;24.20;15.00;;;;;;;1.03;94.04;102269.55;216177;1252;72598;-73
2023/01/22 23:32:43;;;;;;;25.70;14.70;;;;;;;1.04;93.70;102269.95;216150;1253;60163;-73
2023/01/22 23:37:36;;;;;;;25.20;14.30;;;;;;;1.05;93.80;102274.80;216095;1252;68583;-72
2023/01/22 23:42:30;;;;;;;26.60;14.60;;;;;;;1.05;93.85;102270.70;216114;1252;59698;-73
2023/01/22 23:47:25;;;;;;;27.40;15.20;;;;;;;1.05;93.77;102269.35;216165;1253;73841;-73
2023/01/22 23:52:18;;;;;;;29.20;16.30;;;;;;;1.06;94.00;102275.06;216284;1252;73716;-73
2023/01/22 23:57:12;;;;;;;23.60;14.10;;;;;;;1.06;93.97;102275.58;216076;1253;59747;-73
